sensor_id;sensor_type;location;lat;lon;timestamp;pressure;altitude;pressure_sealevel;temperature;humidity
59873;BME280;50750;51.636;4.948;2022-10-16T00:00:43;101114.48;;;17.16;65.24
59873;BME280;50750;51.636;4.948;2022-10-16T00:03:29;101113.98;;;17.16;65.19
59873;BME280;50750;51.636;4.948;2022-10-16T00:05:59;101112.42;;;17.15;65.28
59873;BME280;50750;51.636;4.948;2022-10-16T00:08:26;101113.12;;;17.15;65.20
59873;BME280;50750;51.636;4.948;2022-10-16T00:10:52;101106.61;;;17.14;65.30
59873;BME280;50750;51.636;4.948;2022-10-16T00:13:18;101104.32;;;17.14;65.28
59873;BME280;50750;51.636;4.948;2022-10-16T00:15:47;101104.02;;;17.13;65.21
59873;BME280;50750;51.636;4.948;2022-10-16T00:18:13;101100.64;;;17.13;65.29
59873;BME280;50750;51.636;4.948;2022-10-16T00:20:40;101098.60;;;17.11;65.30
59873;BME280;50750;51.636;4.948;2022-10-16T00:23:07;101100.25;;;17.11;65.31
59873;BME280;50750;51.636;4.948;2022-10-16T00:25:34;101098.52;;;17.10;65.36
59873;BME280;50750;51.636;4.948;2022-10-16T00:28:00;101095.84;;;17.11;65.36
59873;BME280;50750;51.636;4.948;2022-10-16T00:30:27;101092.48;;;17.11;65.26
59873;BME280;50750;51.636;4.948;2022-10-16T00:32:54;101095.67;;;17.11;65.27
59873;BME280;50750;51.636;4.948;2022-10-16T00:35:21;101096.19;;;17.11;65.29
59873;BME280;50750;51.636;4.948;2022-10-16T00:37:48;101100.25;;;17.11;65.32
59873;BME280;50750;51.636;4.948;2022-10-16T00:40:15;101097.60;;;17.11;65.33
59873;BME280;50750;51.636;4.948;2022-10-16T00:42:41;101096.16;;;17.11;65.34
59873;BME280;50750;51.636;4.948;2022-10-16T00:45:08;101102.89;;;17.11;65.21
59873;BME280;50750;51.636;4.948;2022-10-16T00:47:43;101109.81;;;17.11;65.34
59873;BME280;50750;51.636;4.948;2022-10-16T00:50:18;101107.90;;;17.10;65.29
59873;BME280;50750;51.636;4.948;2022-10-16T00:52:47;101113.27;;;17.09;65.32
59873;BME280;50750;51.636;4.948;2022-10-16T00:55:15;101125.31;;;17.09;65.29
59873;BME280;50750;51.636;4.948;2022-10-16T00:57:43;101125.34;;;17.09;65.27
59873;BME280;50750;51.636;4.948;2022-10-16T01:00:13;101126.05;;;17.08;65.34
59873;BME280;50750;51.636;4.948;2022-10-16T01:02:40;101126.73;;;17.09;65.37
59873;BME280;50750;51.636;4.948;2022-10-16T01:05:07;101124.39;;;17.10;65.34
59873;BME280;50750;51.636;4.948;2022-10-16T01:13:09;101117.38;;;17.09;65.29
59873;BME280;50750;51.636;4.948;2022-10-16T01:18:18;101107.98;;;17.09;65.35
59873;BME280;50750;51.636;4.948;2022-10-16T01:20:54;101106.07;;;17.08;65.35
59873;BME280;50750;51.636;4.948;2022-10-16T01:29:18;101104.91;;;17.07;65.42
59873;BME280;50750;51.636;4.948;2022-10-16T01:31:50;101104.95;;;17.06;65.44
59873;BME280;50750;51.636;4.948;2022-10-16T01:34:36;101103.68;;;17.07;65.37
59873;BME280;50750;51.636;4.948;2022-10-16T01:37:17;101104.56;;;17.07;65.43
59873;BME280;50750;51.636;4.948;2022-10-16T01:39:47;101107.75;;;17.07;65.42
59873;BME280;50750;51.636;4.948;2022-10-16T01:42:21;101103.84;;;17.07;65.37
59873;BME280;50750;51.636;4.948;2022-10-16T01:44:51;101099.09;;;17.06;65.44
59873;BME280;50750;51.636;4.948;2022-10-16T01:47:21;101093.26;;;17.07;65.35
59873;BME280;50750;51.636;4.948;2022-10-16T01:49:49;101089.20;;;17.06;65.36
59873;BME280;50750;51.636;4.948;2022-10-16T01:52:20;101098.41;;;17.06;65.47
59873;BME280;50750;51.636;4.948;2022-10-16T01:54:50;101110.45;;;17.06;65.49
59873;BME280;50750;51.636;4.948;2022-10-16T01:57:21;101112.40;;;17.06;65.45
59873;BME280;50750;51.636;4.948;2022-10-16T01:59:51;101107.24;;;17.06;65.36
59873;BME280;50750;51.636;4.948;2022-10-16T02:02:20;101113.24;;;17.07;65.37
59873;BME280;50750;51.636;4.948;2022-10-16T02:05:29;101115.14;;;17.07;65.35
59873;BME280;50750;51.636;4.948;2022-10-16T02:07:57;101120.81;;;17.07;65.36
59873;BME280;50750;51.636;4.948;2022-10-16T02:10:24;101127.59;;;17.06;65.43
59873;BME280;50750;51.636;4.948;2022-10-16T02:12:59;101127.39;;;17.07;65.39
59873;BME280;50750;51.636;4.948;2022-10-16T02:15:27;101114.33;;;17.06;65.43
59873;BME280;50750;51.636;4.948;2022-10-16T02:17:53;101108.71;;;17.05;65.38
59873;BME280;50750;51.636;4.948;2022-10-16T02:20:24;101115.98;;;17.05;65.42
59873;BME280;50750;51.636;4.948;2022-10-16T02:22:52;101119.36;;;17.04;65.30
59873;BME280;50750;51.636;4.948;2022-10-16T02:25:46;101114.20;;;17.05;65.36
59873;BME280;50750;51.636;4.948;2022-10-16T02:28:17;101113.13;;;17.05;65.42
59873;BME280;50750;51.636;4.948;2022-10-16T02:30:51;101116.48;;;17.05;65.41
59873;BME280;50750;51.636;4.948;2022-10-16T02:33:19;101111.67;;;17.06;65.31
59873;BME280;50750;51.636;4.948;2022-10-16T02:35:49;101120.33;;;17.07;65.29
59873;BME280;50750;51.636;4.948;2022-10-16T02:38:17;101126.34;;;17.06;65.35
59873;BME280;50750;51.636;4.948;2022-10-16T02:40:45;101127.05;;;17.07;65.39
59873;BME280;50750;51.636;4.948;2022-10-16T02:43:12;101122.30;;;17.06;65.38
59873;BME280;50750;51.636;4.948;2022-10-16T02:45:39;101115.92;;;17.06;65.30
59873;BME280;50750;51.636;4.948;2022-10-16T02:48:06;101113.86;;;17.05;65.37
59873;BME280;50750;51.636;4.948;2022-10-16T02:50:32;101115.98;;;17.05;65.31
59873;BME280;50750;51.636;4.948;2022-10-16T02:52:59;101113.70;;;17.05;65.38
59873;BME280;50750;51.636;4.948;2022-10-16T02:55:25;101106.25;;;17.05;65.37
59873;BME280;50750;51.636;4.948;2022-10-16T02:57:54;101102.34;;;17.05;65.31
59873;BME280;50750;51.636;4.948;2022-10-16T03:00:20;101106.05;;;17.05;65.36
59873;BME280;50750;51.636;4.948;2022-10-16T03:02:47;101113.67;;;17.05;65.34
59873;BME280;50750;51.636;4.948;2022-10-16T03:05:14;101117.73;;;17.05;65.31
59873;BME280;50750;51.636;4.948;2022-10-16T03:07:41;101116.17;;;17.04;65.31
59873;BME280;50750;51.636;4.948;2022-10-16T03:10:08;101118.50;;;17.04;65.29
59873;BME280;50750;51.636;4.948;2022-10-16T03:12:34;101119.21;;;17.04;65.30
59873;BME280;50750;51.636;4.948;2022-10-16T03:15:01;101120.66;;;17.03;65.28
59873;BME280;50750;51.636;4.948;2022-10-16T03:17:27;101124.73;;;17.03;65.32
59873;BME280;50750;51.636;4.948;2022-10-16T03:19:54;101131.83;;;17.03;65.34
59873;BME280;50750;51.636;4.948;2022-10-16T03:22:20;101131.30;;;17.03;65.31
59873;BME280;50750;51.636;4.948;2022-10-16T03:24:47;101134.27;;;17.03;65.33
59873;BME280;50750;51.636;4.948;2022-10-16T03:27:13;101139.95;;;17.04;65.38
59873;BME280;50750;51.636;4.948;2022-10-16T03:29:40;101148.25;;;17.03;65.34
59873;BME280;50750;51.636;4.948;2022-10-16T03:32:06;101150.92;;;17.04;65.28
59873;BME280;50750;51.636;4.948;2022-10-16T03:34:32;101151.11;;;17.03;65.33
59873;BME280;50750;51.636;4.948;2022-10-16T03:36:59;101149.52;;;17.03;65.27
59873;BME280;50750;51.636;4.948;2022-10-16T03:39:25;101144.58;;;17.02;65.36
59873;BME280;50750;51.636;4.948;2022-10-16T03:41:52;101154.19;;;17.02;65.25
59873;BME280;50750;51.636;4.948;2022-10-16T03:44:18;101157.03;;;17.01;65.35
59873;BME280;50750;51.636;4.948;2022-10-16T03:46:45;101158.45;;;17.01;65.36
59873;BME280;50750;51.636;4.948;2022-10-16T03:49:11;101160.04;;;17.02;65.34
59873;BME280;50750;51.636;4.948;2022-10-16T03:51:37;101163.04;;;17.02;65.25
59873;BME280;50750;51.636;4.948;2022-10-16T03:54:04;101163.20;;;17.02;65.32
59873;BME280;50750;51.636;4.948;2022-10-16T03:56:31;101166.20;;;17.02;65.32
59873;BME280;50750;51.636;4.948;2022-10-16T03:58:57;101171.69;;;17.02;65.34
59873;BME280;50750;51.636;4.948;2022-10-16T04:01:24;101168.16;;;17.02;65.31
59873;BME280;50750;51.636;4.948;2022-10-16T04:03:51;101164.81;;;17.02;65.36
59873;BME280;50750;51.636;4.948;2022-10-16T04:06:17;101166.59;;;17.01;65.27
59873;BME280;50750;51.636;4.948;2022-10-16T04:08:43;101172.09;;;17.00;65.31
59873;BME280;50750;51.636;4.948;2022-10-16T04:11:10;101173.36;;;17.00;65.33
59873;BME280;50750;51.636;4.948;2022-10-16T04:13:36;101174.43;;;17.00;65.35
59873;BME280;50750;51.636;4.948;2022-10-16T04:16:03;101171.55;;;17.01;65.33
59873;BME280;50750;51.636;4.948;2022-10-16T04:18:30;101175.63;;;17.01;65.39
59873;BME280;50750;51.636;4.948;2022-10-16T04:20:56;101179.35;;;17.01;65.28
59873;BME280;50750;51.636;4.948;2022-10-16T04:23:23;101180.05;;;17.00;65.30
59873;BME280;50750;51.636;4.948;2022-10-16T04:25:51;101180.92;;;17.01;65.27
59873;BME280;50750;51.636;4.948;2022-10-16T04:28:17;101184.11;;;17.01;65.31
59873;BME280;50750;51.636;4.948;2022-10-16T04:30:44;101185.17;;;17.01;65.31
59873;BME280;50750;51.636;4.948;2022-10-16T04:33:10;101183.10;;;17.00;65.27
59873;BME280;50750;51.636;4.948;2022-10-16T04:35:36;101190.92;;;16.99;65.30
59873;BME280;50750;51.636;4.948;2022-10-16T04:38:03;101195.34;;;16.99;65.27
59873;BME280;50750;51.636;4.948;2022-10-16T04:40:29;101201.37;;;16.99;65.31
59873;BME280;50750;51.636;4.948;2022-10-16T04:42:59;101199.24;;;16.99;65.32
59873;BME280;50750;51.636;4.948;2022-10-16T04:45:25;101202.23;;;17.00;65.29
59873;BME280;50750;51.636;4.948;2022-10-16T04:47:52;101202.41;;;16.99;65.20
59873;BME280;50750;51.636;4.948;2022-10-16T04:50:18;101204.46;;;17.00;65.27
59873;BME280;50750;51.636;4.948;2022-10-16T04:52:44;101209.98;;;17.00;65.33
59873;BME280;50750;51.636;4.948;2022-10-16T04:55:11;101216.36;;;17.00;65.33
59873;BME280;50750;51.636;4.948;2022-10-16T04:57:38;101214.77;;;17.00;65.31
59873;BME280;50750;51.636;4.948;2022-10-16T05:00:05;101213.55;;;16.99;65.30
59873;BME280;50750;51.636;4.948;2022-10-16T05:02:32;101220.52;;;16.98;65.27
59873;BME280;50750;51.636;4.948;2022-10-16T05:04:58;101221.93;;;16.98;65.36
59873;BME280;50750;51.636;4.948;2022-10-16T05:07:24;101228.46;;;16.98;65.24
59873;BME280;50750;51.636;4.948;2022-10-16T05:09:51;101235.01;;;16.98;65.28
59873;BME280;50750;51.636;4.948;2022-10-16T05:12:17;101244.73;;;16.99;65.31
59873;BME280;50750;51.636;4.948;2022-10-16T05:14:44;101245.08;;;16.99;65.33
59873;BME280;50750;51.636;4.948;2022-10-16T05:17:10;101248.98;;;16.99;65.28
59873;BME280;50750;51.636;4.948;2022-10-16T05:19:37;101254.10;;;16.99;65.32
59873;BME280;50750;51.636;4.948;2022-10-16T05:22:03;101261.71;;;16.99;65.31
59873;BME280;50750;51.636;4.948;2022-10-16T05:24:29;101264.56;;;16.98;65.27
59873;BME280;50750;51.636;4.948;2022-10-16T05:26:56;101268.12;;;16.98;65.27
59873;BME280;50750;51.636;4.948;2022-10-16T05:29:23;101274.15;;;16.97;65.22
59873;BME280;50750;51.636;4.948;2022-10-16T05:31:50;101274.88;;;16.97;65.29
59873;BME280;50750;51.636;4.948;2022-10-16T05:34:17;101274.70;;;16.97;65.24
59873;BME280;50750;51.636;4.948;2022-10-16T05:36:44;101275.93;;;16.97;65.24
59873;BME280;50750;51.636;4.948;2022-10-16T05:39:11;101273.27;;;16.97;65.24
59873;BME280;50750;51.636;4.948;2022-10-16T05:41:39;101280.35;;;16.97;65.28
59873;BME280;50750;51.636;4.948;2022-10-16T05:44:06;101285.82;;;16.98;65.28
59873;BME280;50750;51.636;4.948;2022-10-16T05:46:33;101289.34;;;16.98;65.34
59873;BME280;50750;51.636;4.948;2022-10-16T05:48:59;101291.14;;;16.97;65.27
59873;BME280;50750;51.636;4.948;2022-10-16T05:51:26;101292.73;;;16.97;65.14
59873;BME280;50750;51.636;4.948;2022-10-16T05:53:52;101295.57;;;16.97;65.29
59873;BME280;50750;51.636;4.948;2022-10-16T05:56:19;101298.42;;;16.97;65.20
59873;BME280;50750;51.636;4.948;2022-10-16T05:58:45;101302.34;;;16.96;65.23
59873;BME280;50750;51.636;4.948;2022-10-16T06:01:15;101303.07;;;16.96;65.23
59873;BME280;50750;51.636;4.948;2022-10-16T06:03:41;101303.91;;;16.97;65.15
59873;BME280;50750;51.636;4.948;2022-10-16T06:06:20;101314.34;;;16.97;65.27
59873;BME280;50750;51.636;4.948;2022-10-16T06:08:48;101317.33;;;16.97;65.26
59873;BME280;50750;51.636;4.948;2022-10-16T06:11:26;101320.52;;;16.97;65.20
59873;BME280;50750;51.636;4.948;2022-10-16T06:13:55;101323.16;;;16.97;65.22
59873;BME280;50750;51.636;4.948;2022-10-16T06:16:24;101323.70;;;16.97;65.13
59873;BME280;50750;51.636;4.948;2022-10-16T06:18:55;101330.98;;;16.96;65.19
59873;BME280;50750;51.636;4.948;2022-10-16T06:21:27;101331.01;;;16.96;65.17
59873;BME280;50750;51.636;4.948;2022-10-16T06:23:55;101336.19;;;16.95;65.18
59873;BME280;50750;51.636;4.948;2022-10-16T06:26:24;101339.20;;;16.95;65.14
59873;BME280;50750;51.636;4.948;2022-10-16T06:28:51;101342.74;;;16.95;65.16
59873;BME280;50750;51.636;4.948;2022-10-16T06:31:17;101347.49;;;16.96;65.18
59873;BME280;50750;51.636;4.948;2022-10-16T06:33:44;101346.41;;;16.96;65.15
59873;BME280;50750;51.636;4.948;2022-10-16T06:36:15;101348.89;;;16.96;65.19
59873;BME280;50750;51.636;4.948;2022-10-16T06:38:42;101353.98;;;16.96;65.23
59873;BME280;50750;51.636;4.948;2022-10-16T06:41:11;101354.52;;;16.96;65.08
59873;BME280;50750;51.636;4.948;2022-10-16T06:43:38;101355.61;;;16.96;65.15
59873;BME280;50750;51.636;4.948;2022-10-16T06:46:06;101359.86;;;16.96;65.12
59873;BME280;50750;51.636;4.948;2022-10-16T06:48:36;101365.91;;;16.95;65.21
59873;BME280;50750;51.636;4.948;2022-10-16T06:51:09;101374.80;;;16.94;65.22
59873;BME280;50750;51.636;4.948;2022-10-16T06:53:39;101376.77;;;16.94;65.17
59873;BME280;50750;51.636;4.948;2022-10-16T06:56:13;101386.16;;;16.93;65.15
59873;BME280;50750;51.636;4.948;2022-10-16T06:58:41;101387.03;;;16.94;65.15
59873;BME280;50750;51.636;4.948;2022-10-16T07:01:08;101392.48;;;16.94;65.16
59873;BME280;50750;51.636;4.948;2022-10-16T07:03:37;101394.59;;;16.95;65.23
59873;BME280;50750;51.636;4.948;2022-10-16T07:06:06;101400.78;;;16.94;65.13
59873;BME280;50750;51.636;4.948;2022-10-16T07:08:35;101406.06;;;16.95;65.20
59873;BME280;50750;51.636;4.948;2022-10-16T07:11:07;101412.09;;;16.95;65.07
59873;BME280;50750;51.636;4.948;2022-10-16T07:13:38;101415.27;;;16.95;65.12
59873;BME280;50750;51.636;4.948;2022-10-16T07:16:12;101420.77;;;16.95;65.23
59873;BME280;50750;51.636;4.948;2022-10-16T07:18:39;101430.17;;;16.94;65.14
59873;BME280;50750;51.636;4.948;2022-10-16T07:21:08;101435.80;;;16.95;65.18
59873;BME280;50750;51.636;4.948;2022-10-16T07:23:35;101442.71;;;16.94;65.17
59873;BME280;50750;51.636;4.948;2022-10-16T07:26:02;101436.70;;;16.95;65.12
59873;BME280;50750;51.636;4.948;2022-10-16T07:28:29;101438.98;;;16.95;65.09
59873;BME280;50750;51.636;4.948;2022-10-16T07:31:04;101443.04;;;16.95;65.13
59873;BME280;50750;51.636;4.948;2022-10-16T07:33:32;101449.03;;;16.96;65.00
59873;BME280;50750;51.636;4.948;2022-10-16T07:35:59;101453.79;;;16.96;65.10
59873;BME280;50750;51.636;4.948;2022-10-16T07:38:26;101455.36;;;16.96;65.06
59873;BME280;50750;51.636;4.948;2022-10-16T07:41:01;101454.66;;;16.96;65.07
59873;BME280;50750;51.636;4.948;2022-10-16T07:43:28;101455.41;;;16.95;65.00
59873;BME280;50750;51.636;4.948;2022-10-16T07:45:54;101463.39;;;16.95;65.04
59873;BME280;50750;51.636;4.948;2022-10-16T07:48:23;101465.16;;;16.95;65.04
59873;BME280;50750;51.636;4.948;2022-10-16T07:50:50;101481.08;;;16.95;65.06
59873;BME280;50750;51.636;4.948;2022-10-16T07:53:16;101484.95;;;16.96;65.03
59873;BME280;50750;51.636;4.948;2022-10-16T07:55:42;101493.20;;;16.97;65.15
59873;BME280;50750;51.636;4.948;2022-10-16T07:58:09;101497.30;;;16.96;65.13
59873;BME280;50750;51.636;4.948;2022-10-16T08:00:37;101503.64;;;16.97;65.09
59873;BME280;50750;51.636;4.948;2022-10-16T08:03:03;101504.31;;;16.97;65.02
59873;BME280;50750;51.636;4.948;2022-10-16T08:05:31;101508.91;;;16.98;65.07
59873;BME280;50750;51.636;4.948;2022-10-16T08:07:58;101514.92;;;16.98;65.12
59873;BME280;50750;51.636;4.948;2022-10-16T08:10:27;101522.19;;;16.98;65.02
59873;BME280;50750;51.636;4.948;2022-10-16T08:12:54;101524.52;;;16.97;65.08
59873;BME280;50750;51.636;4.948;2022-10-16T08:15:21;101524.53;;;16.96;65.14
59873;BME280;50750;51.636;4.948;2022-10-16T08:18:04;101525.94;;;16.97;65.02
59873;BME280;50750;51.636;4.948;2022-10-16T08:20:32;101532.11;;;16.97;65.04
59873;BME280;50750;51.636;4.948;2022-10-16T08:23:02;101540.56;;;16.98;65.04
59873;BME280;50750;51.636;4.948;2022-10-16T08:25:28;101546.04;;;16.98;65.04
59873;BME280;50750;51.636;4.948;2022-10-16T08:27:55;101546.18;;;16.99;65.05
59873;BME280;50750;51.636;4.948;2022-10-16T08:30:23;101546.19;;;16.99;65.03
59873;BME280;50750;51.636;4.948;2022-10-16T08:32:50;101549.71;;;16.99;65.04
59873;BME280;50750;51.636;4.948;2022-10-16T08:35:16;101553.44;;;16.99;65.06
59873;BME280;50750;51.636;4.948;2022-10-16T08:37:43;101555.94;;;16.98;64.95
59873;BME280;50750;51.636;4.948;2022-10-16T08:40:18;101559.48;;;16.98;64.95
59873;BME280;50750;51.636;4.948;2022-10-16T08:45:49;101565.65;;;16.99;65.09
59873;BME280;50750;51.636;4.948;2022-10-16T08:48:27;101571.45;;;16.99;65.07
59873;BME280;50750;51.636;4.948;2022-10-16T08:50:56;101570.34;;;17.00;65.11
59873;BME280;50750;51.636;4.948;2022-10-16T08:53:31;101568.74;;;17.01;65.16
59873;BME280;50750;51.636;4.948;2022-10-16T08:56:02;101572.05;;;17.02;65.11
59873;BME280;50750;51.636;4.948;2022-10-16T08:58:30;101574.18;;;17.02;65.10
59873;BME280;50750;51.636;4.948;2022-10-16T09:01:00;101575.77;;;17.02;65.08
59873;BME280;50750;51.636;4.948;2022-10-16T09:04:17;101575.95;;;17.02;65.07
59873;BME280;50750;51.636;4.948;2022-10-16T09:14:35;101588.66;;;17.03;65.12
59873;BME280;50750;51.636;4.948;2022-10-16T09:17:29;101587.22;;;17.03;65.12
59873;BME280;50750;51.636;4.948;2022-10-16T09:23:17;101595.99;;;17.05;65.01
59873;BME280;50750;51.636;4.948;2022-10-16T09:25:48;101591.34;;;17.06;65.12
59873;BME280;50750;51.636;4.948;2022-10-16T09:28:17;101596.62;;;17.07;65.05
59873;BME280;50750;51.636;4.948;2022-10-16T09:30:45;101598.25;;;17.06;65.00
59873;BME280;50750;51.636;4.948;2022-10-16T09:33:13;101597.52;;;17.07;65.06
59873;BME280;50750;51.636;4.948;2022-10-16T09:35:45;101598.21;;;17.07;64.92
59873;BME280;50750;51.636;4.948;2022-10-16T09:38:30;101601.76;;;17.07;64.98
59873;BME280;50750;51.636;4.948;2022-10-16T09:40:58;101602.27;;;17.07;64.98
59873;BME280;50750;51.636;4.948;2022-10-16T09:43:32;101603.66;;;17.07;64.98
59873;BME280;50750;51.636;4.948;2022-10-16T09:46:04;101606.81;;;17.08;64.98
59873;BME280;50750;51.636;4.948;2022-10-16T09:48:43;101611.59;;;17.09;64.91
59873;BME280;50750;51.636;4.948;2022-10-16T09:51:37;101614.05;;;17.09;65.12
59873;BME280;50750;51.636;4.948;2022-10-16T09:56:37;101616.14;;;17.10;65.10
59873;BME280;50750;51.636;4.948;2022-10-16T09:59:18;101613.85;;;17.09;65.10
59873;BME280;50750;51.636;4.948;2022-10-16T10:01:48;101615.80;;;17.09;65.16
59873;BME280;50750;51.636;4.948;2022-10-16T10:04:16;101617.90;;;17.09;65.14
59873;BME280;50750;51.636;4.948;2022-10-16T10:06:48;101620.91;;;17.09;65.11
59873;BME280;50750;51.636;4.948;2022-10-16T10:09:31;101620.59;;;17.09;65.10
59873;BME280;50750;51.636;4.948;2022-10-16T10:12:00;101621.66;;;17.09;65.11
59873;BME280;50750;51.636;4.948;2022-10-16T10:14:42;101621.62;;;17.10;65.12
59873;BME280;50750;51.636;4.948;2022-10-16T10:17:13;101628.63;;;17.10;65.07
59873;BME280;50750;51.636;4.948;2022-10-16T10:19:46;101634.08;;;17.12;65.15
59873;BME280;50750;51.636;4.948;2022-10-16T10:22:30;101637.70;;;17.13;65.05
59873;BME280;50750;51.636;4.948;2022-10-16T10:39:04;101656.30;;;17.25;64.71
59873;BME280;50750;51.636;4.948;2022-10-16T10:46:51;101653.92;;;17.27;64.78
59873;BME280;50750;51.636;4.948;2022-10-16T10:55:20;101663.62;;;17.28;64.66
59873;BME280;50750;51.636;4.948;2022-10-16T10:58:03;101665.37;;;17.28;64.65
59873;BME280;50750;51.636;4.948;2022-10-16T11:06:06;101669.83;;;17.28;64.73
59873;BME280;50750;51.636;4.948;2022-10-16T11:08:39;101672.15;;;17.27;64.67
59873;BME280;50750;51.636;4.948;2022-10-16T11:11:14;101672.52;;;17.27;64.72
59873;BME280;50750;51.636;4.948;2022-10-16T11:13:55;101672.70;;;17.26;64.74
59873;BME280;50750;51.636;4.948;2022-10-16T11:19:48;101667.52;;;17.28;64.82
59873;BME280;50750;51.636;4.948;2022-10-16T11:25:12;101671.54;;;17.29;64.74
59873;BME280;50750;51.636;4.948;2022-10-16T11:28:19;101677.52;;;17.30;64.83
59873;BME280;50750;51.636;4.948;2022-10-16T11:31:08;101682.10;;;17.30;64.79
59873;BME280;50750;51.636;4.948;2022-10-16T11:33:43;101683.14;;;17.31;64.76
59873;BME280;50750;51.636;4.948;2022-10-16T11:36:49;101681.52;;;17.31;64.78
59873;BME280;50750;51.636;4.948;2022-10-16T11:39:26;101685.23;;;17.31;64.76
59873;BME280;50750;51.636;4.948;2022-10-16T11:42:10;101689.98;;;17.32;64.80
59873;BME280;50750;51.636;4.948;2022-10-16T11:47:43;101692.94;;;17.33;64.76
59873;BME280;50750;51.636;4.948;2022-10-16T11:50:24;101694.86;;;17.33;64.82
59873;BME280;50750;51.636;4.948;2022-10-16T11:52:58;101692.68;;;17.35;64.85
59873;BME280;50750;51.636;4.948;2022-10-16T11:55:34;101691.41;;;17.35;64.78
59873;BME280;50750;51.636;4.948;2022-10-16T11:58:36;101694.92;;;17.36;64.78
59873;BME280;50750;51.636;4.948;2022-10-16T12:06:57;101700.85;;;17.38;64.74
59873;BME280;50750;51.636;4.948;2022-10-16T12:09:30;101700.29;;;17.39;64.83
59873;BME280;50750;51.636;4.948;2022-10-16T12:11:57;101704.17;;;17.39;64.81
59873;BME280;50750;51.636;4.948;2022-10-16T12:19:22;101699.95;;;17.38;64.77
59873;BME280;50750;51.636;4.948;2022-10-16T12:21:50;101700.46;;;17.39;64.83
59873;BME280;50750;51.636;4.948;2022-10-16T12:24:42;101703.23;;;17.40;64.85
59873;BME280;50750;51.636;4.948;2022-10-16T12:27:41;101710.66;;;17.41;64.84
59873;BME280;50750;51.636;4.948;2022-10-16T12:30:21;101709.54;;;17.42;64.78
59873;BME280;50750;51.636;4.948;2022-10-16T12:33:00;101708.79;;;17.42;64.85
59873;BME280;50750;51.636;4.948;2022-10-16T12:35:31;101704.15;;;17.43;64.75
59873;BME280;50750;51.636;4.948;2022-10-16T12:38:07;101704.48;;;17.44;64.86
59873;BME280;50750;51.636;4.948;2022-10-16T12:40:37;101706.57;;;17.45;64.85
59873;BME280;50750;51.636;4.948;2022-10-16T12:43:25;101707.98;;;17.45;64.80
59873;BME280;50750;51.636;4.948;2022-10-16T12:46:24;101704.92;;;17.46;64.85
59873;BME280;50750;51.636;4.948;2022-10-16T12:48:47;101704.38;;;17.46;64.76
59873;BME280;50750;51.636;4.948;2022-10-16T12:51:35;101700.83;;;17.47;64.90
59873;BME280;50750;51.636;4.948;2022-10-16T12:56:57;101696.63;;;17.49;64.86
59873;BME280;50750;51.636;4.948;2022-10-16T13:00:35;101696.79;;;17.50;64.79
59873;BME280;50750;51.636;4.948;2022-10-16T13:08:11;101705.64;;;17.53;64.75
59873;BME280;50750;51.636;4.948;2022-10-16T13:11:03;101706.65;;;17.54;64.86
59873;BME280;50750;51.636;4.948;2022-10-16T13:24:59;101713.53;;;17.55;64.90
59873;BME280;50750;51.636;4.948;2022-10-16T13:27:50;101723.91;;;17.56;64.76
59873;BME280;50750;51.636;4.948;2022-10-16T13:30:31;101726.00;;;17.57;64.82
59873;BME280;50750;51.636;4.948;2022-10-16T13:33:11;101725.95;;;17.58;64.81
59873;BME280;50750;51.636;4.948;2022-10-16T13:35:48;101725.74;;;17.59;64.80
59873;BME280;50750;51.636;4.948;2022-10-16T13:38:19;101724.64;;;17.60;64.85
59873;BME280;50750;51.636;4.948;2022-10-16T13:40:49;101725.67;;;17.61;64.79
59873;BME280;50750;51.636;4.948;2022-10-16T13:43:18;101726.16;;;17.61;64.82
59873;BME280;50750;51.636;4.948;2022-10-16T13:46:00;101728.09;;;17.62;64.88
59873;BME280;50750;51.636;4.948;2022-10-16T13:48:29;101724.02;;;17.62;64.81
59873;BME280;50750;51.636;4.948;2022-10-16T13:51:12;101724.54;;;17.62;64.82
59873;BME280;50750;51.636;4.948;2022-10-16T13:53:39;101719.56;;;17.62;64.81
59873;BME280;50750;51.636;4.948;2022-10-16T13:56:11;101714.62;;;17.62;64.89
59873;BME280;50750;51.636;4.948;2022-10-16T13:58:38;101719.22;;;17.62;64.89
59873;BME280;50750;51.636;4.948;2022-10-16T14:01:16;101718.30;;;17.63;64.87
59873;BME280;50750;51.636;4.948;2022-10-16T14:03:44;101714.72;;;17.64;64.84
59873;BME280;50750;51.636;4.948;2022-10-16T14:06:14;101717.85;;;17.65;64.81
59873;BME280;50750;51.636;4.948;2022-10-16T14:08:44;101716.41;;;17.66;64.80
59873;BME280;50750;51.636;4.948;2022-10-16T14:11:11;101716.19;;;17.66;64.81
59873;BME280;50750;51.636;4.948;2022-10-16T14:13:43;101712.43;;;17.67;64.82
59873;BME280;50750;51.636;4.948;2022-10-16T14:16:16;101715.05;;;17.68;64.85
59873;BME280;50750;51.636;4.948;2022-10-16T14:18:46;101714.33;;;17.69;64.96
59873;BME280;50750;51.636;4.948;2022-10-16T14:21:18;101714.13;;;17.69;64.88
59873;BME280;50750;51.636;4.948;2022-10-16T14:23:44;101720.53;;;17.69;64.77
59873;BME280;50750;51.636;4.948;2022-10-16T14:28:40;101720.73;;;17.68;64.80
59873;BME280;50750;51.636;4.948;2022-10-16T14:33:45;101708.11;;;17.69;64.79
59873;BME280;50750;51.636;4.948;2022-10-16T14:36:13;101708.77;;;17.70;64.88
59873;BME280;50750;51.636;4.948;2022-10-16T14:38:43;101710.86;;;17.71;64.89
59873;BME280;50750;51.636;4.948;2022-10-16T14:41:14;101711.34;;;17.72;64.93
59873;BME280;50750;51.636;4.948;2022-10-16T14:43:42;101709.55;;;17.72;64.84
59873;BME280;50750;51.636;4.948;2022-10-16T14:46:14;101710.41;;;17.73;64.82
59873;BME280;50750;51.636;4.948;2022-10-16T14:48:42;101704.20;;;17.73;64.87
59873;BME280;50750;51.636;4.948;2022-10-16T14:51:19;101705.59;;;17.74;64.83
59873;BME280;50750;51.636;4.948;2022-10-16T14:53:47;101709.45;;;17.74;64.81
59873;BME280;50750;51.636;4.948;2022-10-16T14:56:21;101715.11;;;17.74;64.93